Time;durP1;ratioP1;P1;durP2;ratioP2;P2;SDS_P1;SDS_P2;PMS_P1;PMS_P2;Temp;Humidity;BMP_temperature;BMP_pressure;BME280_temperature;BME280_humidity;BME280_pressure;Samples;Min_cycle;Max_cycle;Signal;HPM_P1;HPM_P2
2024/02/24 00:00:39;;;;;;;70.30;37.37;;;;;;;8.34;83.58;100345.97;123530;1099;104252;-75
2024/02/24 00:03:31;;;;;;;64.80;35.57;;;;;;;8.33;83.51;100365.97;123650;1099;104351;-76
2024/02/24 00:06:02;;;;;;;62.75;33.40;;;;;;;8.33;83.87;100362.48;123476;1099;104399;-75
2024/02/24 00:08:33;;;;;;;69.67;36.07;;;;;;;8.32;84.70;100361.59;123521;1099;104293;-76
2024/02/24 00:11:04;;;;;;;70.23;34.97;;;;;;;8.34;83.48;100359.05;123437;1099;104379;-76
2024/02/24 00:13:36;;;;;;;67.77;36.30;;;;;;;8.34;84.20;100356.43;123491;1098;104222;-76
2024/02/24 00:16:08;;;;;;;72.07;36.03;;;;;;;8.33;83.63;100359.86;123448;1099;104229;-76
2024/02/24 00:18:39;;;;;;;68.53;36.37;;;;;;;8.33;83.67;100346.79;123224;1099;104359;-77
2024/02/24 00:21:10;;;;;;;66.70;35.90;;;;;;;8.34;83.68;100352.08;123450;1099;104328;-76
2024/02/24 00:23:42;;;;;;;63.07;33.77;;;;;;;8.37;83.69;100346.98;123462;1099;104338;-76
2024/02/24 00:26:13;;;;;;;69.73;34.80;;;;;;;8.38;84.43;100342.64;123482;1099;105678;-76
2024/02/24 00:28:44;;;;;;;74.63;35.53;;;;;;;8.38;84.01;100340.02;123494;1098;104351;-76
2024/02/24 00:31:15;;;;;;;68.85;35.40;;;;;;;8.38;84.18;100342.64;123513;1098;104351;-76
2024/02/24 00:33:47;;;;;;;73.60;37.00;;;;;;;8.41;83.80;100350.61;123502;1099;104469;-75
2024/02/24 00:36:18;;;;;;;69.30;35.23;;;;;;;8.40;83.45;100341.00;123474;1099;104328;-75
2024/02/24 00:38:49;;;;;;;66.65;34.50;;;;;;;8.42;83.97;100342.83;123189;1099;104382;-75
2024/02/24 00:41:21;;;;;;;74.57;36.40;;;;;;;8.43;84.41;100344.66;123615;1099;104328;-75
2024/02/24 00:43:52;;;;;;;67.00;34.50;;;;;;;8.43;84.34;100344.66;123496;1099;104376;-76
2024/02/24 00:46:23;;;;;;;71.67;36.20;;;;;;;8.43;84.99;100335.87;123205;1099;104351;-76
2024/02/24 00:48:54;;;;;;;67.17;33.97;;;;;;;8.43;85.79;100348.94;123490;1098;104274;-76
2024/02/24 00:51:26;;;;;;;67.60;34.93;;;;;;;8.42;84.52;100339.33;123438;1099;104328;-76
2024/02/24 00:53:58;;;;;;;68.63;35.17;;;;;;;8.42;83.91;100342.83;123437;1099;104345;-76
2024/02/24 00:56:30;;;;;;;65.73;35.00;;;;;;;8.44;84.90;100349.04;123475;1099;104715;-76
2024/02/24 00:59:01;;;;;;;71.15;35.80;;;;;;;8.43;85.16;100336.81;123401;1099;104373;-76
2024/02/24 01:01:32;;;;;;;70.97;35.37;;;;;;;8.47;84.57;100336.95;123453;1099;104254;-75
2024/02/24 01:04:04;;;;;;;65.20;34.60;;;;;;;8.49;84.13;100340.50;123159;1099;104258;-76
2024/02/24 01:06:35;;;;;;;65.67;33.60;;;;;;;8.51;84.51;100339.75;123427;1099;104351;-76
2024/02/24 01:09:06;;;;;;;69.17;34.47;;;;;;;8.52;84.45;100341.52;123234;1099;104373;-76
2024/02/24 01:11:38;;;;;;;73.07;34.33;;;;;;;8.52;84.95;100338.02;123449;1099;104322;-76
2024/02/24 01:14:09;;;;;;;68.30;34.27;;;;;;;8.50;84.83;100334.45;123502;1099;104272;-76
2024/02/24 01:16:44;;;;;;;64.90;33.40;;;;;;;8.50;85.02;100337.95;123405;1099;104408;-75
2024/02/24 01:19:15;;;;;;;69.30;34.97;;;;;;;8.52;84.95;100335.40;123519;1098;104274;-75
2024/02/24 01:21:46;;;;;;;71.77;34.63;;;;;;;8.53;84.43;100330.23;123502;1099;104361;-76
2024/02/24 01:24:19;;;;;;;63.07;32.80;;;;;;;8.55;85.01;100331.18;123440;1098;104398;-76
2024/02/24 01:26:50;;;;;;;67.50;33.20;;;;;;;8.57;84.57;100326.92;123454;1099;104361;-76
2024/02/24 01:29:21;;;;;;;66.15;32.30;;;;;;;8.57;84.39;100326.92;123471;1099;104281;-77
2024/02/24 01:31:53;;;;;;;62.13;31.13;;;;;;;8.56;85.24;100322.52;123443;1099;104274;-76
2024/02/24 01:34:24;;;;;;;60.70;30.93;;;;;;;8.55;85.54;100315.48;123445;1099;104400;-76
2024/02/24 01:36:55;;;;;;;61.53;31.53;;;;;;;8.54;86.11;100316.34;123475;1099;104257;-76
2024/02/24 01:39:26;;;;;;;63.20;31.23;;;;;;;8.53;85.30;100322.39;123502;1099;104746;-76
2024/02/24 01:41:57;;;;;;;59.13;29.63;;;;;;;8.52;86.00;100312.75;123501;1099;104316;-75
2024/02/24 01:44:29;;;;;;;64.13;30.57;;;;;;;8.51;85.42;100323.14;123486;1099;104245;-76
2024/02/24 01:47:00;;;;;;;63.05;30.60;;;;;;;8.50;85.69;100322.27;123228;1099;104350;-75
2024/02/24 01:49:31;;;;;;;67.33;30.60;;;;;;;8.48;85.59;100320.41;123450;1099;104389;-76
2024/02/24 01:52:04;;;;;;;60.70;29.30;;;;;;;8.46;85.08;100317.72;123455;1099;104329;-76
2024/02/24 01:54:36;;;;;;;53.13;27.67;;;;;;;8.48;85.22;100318.70;123504;1098;104274;-75
2024/02/24 01:57:11;;;;;;;60.77;29.73;;;;;;;8.48;86.01;100328.25;123491;1098;104281;-75
2024/02/24 01:59:42;;;;;;;56.43;27.10;;;;;;;8.45;85.79;100321.19;123583;1098;104310;-76
2024/02/24 02:02:13;;;;;;;57.63;27.53;;;;;;;8.45;85.96;100315.96;123451;1098;104334;-75
2024/02/24 02:04:47;;;;;;;49.77;26.53;;;;;;;8.44;85.59;100322.01;123468;1099;104268;-76
2024/02/24 02:07:19;;;;;;;58.60;27.15;;;;;;;8.42;87.79;100315.80;123470;1099;104284;-76
2024/02/24 02:09:57;;;;;;;48.10;24.33;;;;;;;8.42;86.48;100311.45;123466;1099;104229;-76
2024/02/24 02:12:31;;;;;;;52.97;24.87;;;;;;;8.40;86.25;100310.50;123677;1098;104268;-75
2024/02/24 02:15:03;;;;;;;52.57;24.77;;;;;;;8.42;85.71;100319.30;123498;1099;104306;-76
2024/02/24 02:17:35;;;;;;;48.60;24.43;;;;;;;8.41;86.12;100301.84;123638;1099;104201;-75
2024/02/24 02:20:08;;;;;;;47.90;23.97;;;;;;;8.40;86.34;100309.62;123480;1098;104286;-76
2024/02/24 02:22:40;;;;;;;48.40;24.55;;;;;;;8.39;86.57;100305.21;123531;1097;104351;-76
2024/02/24 02:25:11;;;;;;;47.93;23.03;;;;;;;8.38;86.54;100306.03;123187;1099;104466;-75
2024/02/24 02:27:43;;;;;;;45.77;23.17;;;;;;;8.39;86.29;100324.40;123471;1099;104719;-74
2024/02/24 02:30:14;;;;;;;48.60;22.27;;;;;;;8.36;86.77;100315.55;123529;1099;104275;-76
2024/02/24 02:32:46;;;;;;;48.87;22.43;;;;;;;8.33;87.26;100315.41;123536;1098;104288;-75
2024/02/24 02:35:17;;;;;;;43.23;22.53;;;;;;;8.32;86.24;100314.53;123234;1099;104268;-77
2024/02/24 02:37:48;;;;;;;44.50;21.23;;;;;;;8.31;87.14;100317.09;123457;1099;104309;-77
2024/02/24 02:40:19;;;;;;;45.33;22.23;;;;;;;8.30;86.55;100313.55;123503;1099;104281;-75
2024/02/24 02:42:51;;;;;;;46.40;23.45;;;;;;;8.28;86.75;100323.95;123480;1098;104400;-75
2024/02/24 02:45:24;;;;;;;47.70;22.30;;;;;;;8.25;87.06;100326.43;123424;1099;104364;-76
2024/02/24 02:47:55;;;;;;;44.85;22.30;;;;;;;8.26;86.52;100336.07;123467;1099;104251;-75
2024/02/24 02:50:26;;;;;;;45.53;21.50;;;;;;;8.27;86.31;100339.56;123664;1099;104373;-76
2024/02/24 02:52:58;;;;;;;43.03;20.80;;;;;;;8.28;86.31;100346.59;123371;1099;104351;-76
2024/02/24 02:55:29;;;;;;;44.87;19.87;;;;;;;8.28;86.38;100334.41;123453;1099;104688;-77
2024/02/24 02:58:00;;;;;;;45.17;20.13;;;;;;;8.28;87.43;100337.02;123440;1099;104249;-75
2024/02/24 03:00:32;;;;;;;42.87;20.70;;;;;;;8.27;87.43;100350.02;123463;1098;104351;-76
2024/02/24 03:03:03;;;;;;;41.00;20.90;;;;;;;8.25;87.09;100347.34;123460;1099;104249;-76
2024/02/24 03:05:34;;;;;;;47.70;21.47;;;;;;;8.26;87.43;100345.64;123491;1098;104351;-75
2024/02/24 03:08:06;;;;;;;44.43;20.60;;;;;;;8.27;87.59;100350.02;123483;1099;104252;-76
2024/02/24 03:10:37;;;;;;;47.10;21.83;;;;;;;8.27;87.14;100353.55;123485;1099;104364;-76
2024/02/24 03:13:08;;;;;;;45.53;21.10;;;;;;;8.28;87.54;100362.28;123536;1099;104315;-77
2024/02/24 03:15:39;;;;;;;42.37;19.73;;;;;;;8.28;86.99;100363.16;123431;1099;104406;-76
2024/02/24 03:18:10;;;;;;;40.17;19.97;;;;;;;8.28;86.76;100367.51;123393;1099;104315;-76
2024/02/24 03:20:42;;;;;;;40.17;20.10;;;;;;;8.27;87.23;100365.70;123446;1099;104334;-77
2024/02/24 03:23:14;;;;;;;42.10;19.60;;;;;;;8.25;87.07;100356.92;123447;1099;104286;-75
2024/02/24 03:25:45;;;;;;;46.70;20.03;;;;;;;8.24;87.95;100355.13;123488;1099;104287;-77
2024/02/24 03:28:17;;;;;;;40.93;19.80;;;;;;;8.22;87.24;100356.78;123397;1099;104283;-75
2024/02/24 03:30:48;;;;;;;41.93;20.30;;;;;;;8.21;87.63;100362.83;123455;1098;104828;-76
2024/02/24 03:33:19;;;;;;;42.13;19.50;;;;;;;8.22;87.16;100364.62;123460;1099;104226;-76
2024/02/24 03:35:50;;;;;;;39.90;19.93;;;;;;;8.22;87.21;100372.47;123431;1099;104366;-75
2024/02/24 03:38:22;;;;;;;41.33;19.77;;;;;;;8.22;87.64;100362.02;123171;1099;104771;-75
2024/02/24 03:40:53;;;;;;;44.30;21.23;;;;;;;8.20;87.21;100369.79;123598;1099;117980;-76
2024/02/24 03:43:25;;;;;;;45.00;20.70;;;;;;;8.20;87.75;100374.13;123472;1099;104334;-75
2024/02/24 03:45:56;;;;;;;44.47;20.30;;;;;;;8.18;87.95;100371.45;123531;1099;104248;-76
2024/02/24 03:48:27;;;;;;;41.50;19.00;;;;;;;8.15;87.93;100370.41;123467;1099;104353;-77
2024/02/24 03:50:59;;;;;;;40.07;18.97;;;;;;;8.15;88.36;100380.86;123680;1099;104309;-76
2024/02/24 03:53:30;;;;;;;44.53;19.27;;;;;;;8.12;87.96;100371.19;123449;1098;104304;-76
2024/02/24 03:56:01;;;;;;;42.95;19.90;;;;;;;8.11;88.05;100374.62;123440;1099;104386;-76
2024/02/24 03:58:33;;;;;;;42.53;20.57;;;;;;;8.09;88.85;100377.16;123449;1098;104653;-76
2024/02/24 04:01:05;;;;;;;39.65;18.30;;;;;;;8.09;88.00;100378.89;123560;1099;104280;-75
2024/02/24 04:03:36;;;;;;;39.50;20.55;;;;;;;8.08;88.67;100371.87;123247;1099;104335;-75
2024/02/24 04:06:08;;;;;;;40.87;19.03;;;;;;;8.09;88.10;100379.78;123422;1099;104357;-76
2024/02/24 04:08:39;;;;;;;42.50;18.40;;;;;;;8.09;88.05;100376.28;123480;1099;104364;-77
2024/02/24 04:11:10;;;;;;;42.67;19.87;;;;;;;8.12;88.35;100381.64;123437;1099;104613;-76
2024/02/24 04:13:42;;;;;;;41.63;18.67;;;;;;;8.13;87.95;100382.52;123472;1099;104264;-76
2024/02/24 04:16:13;;;;;;;43.27;19.73;;;;;;;8.12;87.80;100384.26;123493;1098;104290;-77
2024/02/24 04:18:44;;;;;;;42.37;20.77;;;;;;;8.10;88.76;100378.05;123185;1099;104328;-75
2024/02/24 04:21:17;;;;;;;41.05;19.40;;;;;;;8.07;89.89;100375.30;123395;1099;104332;-77
2024/02/24 04:23:48;;;;;;;39.30;18.77;;;;;;;8.03;89.88;100368.17;123554;1098;104684;-76
2024/02/24 04:26:19;;;;;;;43.35;19.05;;;;;;;8.02;89.35;100382.05;123483;1099;104255;-77
2024/02/24 04:28:50;;;;;;;42.27;18.63;;;;;;;8.00;88.87;100381.10;123487;1099;104236;-76
2024/02/24 04:31:22;;;;;;;38.87;19.03;;;;;;;7.99;89.57;100387.14;123427;1099;104325;-76
2024/02/24 04:33:54;;;;;;;40.97;19.53;;;;;;;7.94;89.20;100392.16;123503;1099;104315;-76
2024/02/24 04:36:25;;;;;;;42.70;19.20;;;;;;;7.94;88.83;100386.94;123444;1098;104271;-76
2024/02/24 04:38:56;;;;;;;38.10;18.50;;;;;;;7.94;88.98;100389.55;123579;1099;104229;-75
2024/02/24 04:41:27;;;;;;;36.53;17.63;;;;;;;7.94;88.94;100391.28;123511;1099;104242;-75
2024/02/24 04:43:59;;;;;;;36.47;16.87;;;;;;;7.91;88.67;100403.36;123619;1098;104477;-77
2024/02/24 04:46:30;;;;;;;34.75;17.15;;;;;;;7.91;89.39;100398.13;123482;1099;104357;-77
2024/02/24 04:49:01;;;;;;;40.37;18.30;;;;;;;7.96;88.73;100410.52;123438;1099;104360;-76
2024/02/24 04:51:33;;;;;;;38.53;18.23;;;;;;;7.96;88.70;100407.91;123470;1099;104242;-76
2024/02/24 04:54:04;;;;;;;38.27;17.97;;;;;;;7.96;89.25;100405.30;123561;1099;104268;-76
2024/02/24 04:56:35;;;;;;;42.43;18.17;;;;;;;7.97;89.47;100407.09;123484;1099;104645;-77
2024/02/24 04:59:06;;;;;;;39.73;18.30;;;;;;;7.97;89.05;100412.32;123517;1099;104370;-75
2024/02/24 05:01:37;;;;;;;39.40;18.00;;;;;;;7.98;89.88;100398.41;123570;1099;104341;-76
2024/02/24 05:04:09;;;;;;;41.50;18.70;;;;;;;7.96;89.25;100402.69;123417;1099;104248;-76
2024/02/24 05:06:40;;;;;;;36.27;18.07;;;;;;;7.97;89.61;100410.59;123445;1099;104303;-76
2024/02/24 05:09:12;;;;;;;41.25;19.10;;;;;;;7.99;89.05;100402.82;123438;1098;104290;-76
2024/02/24 05:11:43;;;;;;;42.70;18.97;;;;;;;7.98;89.24;100403.63;123463;1099;104359;-75
2024/02/24 05:14:17;;;;;;;41.43;19.30;;;;;;;8.00;89.06;100407.23;123490;1099;104239;-75
2024/02/24 05:16:48;;;;;;;42.60;19.77;;;;;;;8.02;89.01;100408.19;123421;1099;104360;-76
2024/02/24 05:19:20;;;;;;;44.70;20.43;;;;;;;8.05;89.09;100405.70;123463;1099;104239;-76
2024/02/24 05:21:51;;;;;;;45.90;19.93;;;;;;;8.06;89.46;100416.23;123442;1099;104384;-76
2024/02/24 05:24:22;;;;;;;45.03;18.37;;;;;;;8.11;89.47;100408.59;123475;1099;104357;-75
2024/02/24 05:26:53;;;;;;;45.93;19.63;;;;;;;8.13;89.66;100414.77;123520;1099;104262;-75
2024/02/24 05:29:24;;;;;;;45.43;19.83;;;;;;;8.18;89.82;100415.89;123464;1099;104252;-75
2024/02/24 05:31:55;;;;;;;43.57;19.57;;;;;;;8.21;89.47;100421.25;123409;1099;104281;-75
2024/02/24 05:34:27;;;;;;;39.97;19.03;;;;;;;8.23;90.31;100413.48;123483;1099;104360;-75
2024/02/24 05:36:58;;;;;;;43.37;19.37;;;;;;;8.20;90.21;100422.07;123534;1099;104384;-75
2024/02/24 05:39:29;;;;;;;40.93;19.00;;;;;;;8.19;89.78;100411.55;123426;1099;104325;-76
2024/02/24 05:42:00;;;;;;;44.35;20.00;;;;;;;8.20;90.08;100421.19;123413;1099;104277;-75
2024/02/24 05:44:31;;;;;;;39.55;19.15;;;;;;;8.22;89.89;100417.79;123581;1099;104251;-75
2024/02/24 05:47:03;;;;;;;43.60;19.73;;;;;;;8.22;90.28;100417.79;123487;1099;104354;-76
2024/02/24 05:49:35;;;;;;;45.17;19.67;;;;;;;8.22;90.48;100416.91;123505;1099;104491;-76
2024/02/24 05:52:06;;;;;;;45.87;19.83;;;;;;;8.21;90.67;100421.25;123450;1099;104281;-77
2024/02/24 05:54:41;;;;;;;36.70;16.90;;;;;;;8.26;90.64;100418.84;123451;1099;104315;-75
2024/02/24 05:57:12;;;;;;;45.87;19.60;;;;;;;8.27;90.95;100426.75;123509;1099;104319;-75
2024/02/24 05:59:43;;;;;;;42.63;19.57;;;;;;;8.31;90.64;100419.92;123448;1098;104360;-76
2024/02/24 06:02:15;;;;;;;45.77;19.17;;;;;;;8.33;90.23;100425.22;123778;1099;104370;-76
2024/02/24 06:04:46;;;;;;;40.53;18.53;;;;;;;8.37;90.34;100429.77;123524;1098;104279;-75
2024/02/24 06:07:17;;;;;;;43.23;19.63;;;;;;;8.41;90.89;100442.12;123582;1099;104322;-75
2024/02/24 06:09:49;;;;;;;45.53;19.83;;;;;;;8.44;90.29;100435.33;123644;1099;104626;-76
2024/02/24 06:12:20;;;;;;;39.03;17.87;;;;;;;8.45;91.09;100437.13;123663;1098;104245;-75
2024/02/24 06:14:51;;;;;;;38.10;18.70;;;;;;;8.44;90.56;100437.95;123545;1099;104431;-76
2024/02/24 06:17:22;;;;;;;39.20;18.63;;;;;;;8.45;90.61;100444.97;123647;1099;104355;-77
2024/02/24 06:19:53;;;;;;;40.53;18.87;;;;;;;8.49;90.83;100455.56;123709;1099;104255;-77
2024/02/24 06:22:25;;;;;;;40.70;18.50;;;;;;;8.52;90.46;100453.09;123751;1098;104377;-75
2024/02/24 06:24:56;;;;;;;40.77;19.10;;;;;;;8.54;90.42;100457.56;123257;1099;104323;-76
2024/02/24 06:27:29;;;;;;;39.77;18.53;;;;;;;8.56;90.90;100455.90;123682;1099;104387;-76
2024/02/24 06:30:00;;;;;;;41.92;18.65;;;;;;;8.58;90.72;100462.08;123557;1099;104306;-77
2024/02/24 06:32:32;;;;;;;40.53;17.80;;;;;;;8.60;90.55;100455.22;123612;1099;104361;-76
2024/02/24 06:35:05;;;;;;;37.65;16.70;;;;;;;8.61;90.97;100461.33;123692;1099;104347;-77
2024/02/24 06:37:36;;;;;;;38.77;17.73;;;;;;;8.61;90.41;100458.71;123504;1099;104320;-76
2024/02/24 06:40:09;;;;;;;35.70;17.50;;;;;;;8.65;91.19;100465.88;123759;1099;104307;-77
2024/02/24 06:42:40;;;;;;;36.87;17.83;;;;;;;8.67;90.77;100465.94;123830;1099;104265;-75
2024/02/24 06:45:12;;;;;;;34.67;16.67;;;;;;;8.73;90.86;100458.36;123923;1098;104172;-76
2024/02/24 06:47:43;;;;;;;38.90;16.83;;;;;;;8.77;90.67;100466.41;123949;1096;104277;-76
2024/02/24 06:50:14;;;;;;;35.93;16.57;;;;;;;8.81;91.36;100464.80;123762;1098;104236;-75
2024/02/24 06:52:45;;;;;;;36.70;16.93;;;;;;;8.82;92.19;100463.98;123702;1099;104373;-75
2024/02/24 06:55:17;;;;;;;36.75;17.80;;;;;;;8.85;91.39;100465.81;123517;1099;104278;-75
2024/02/24 06:57:49;;;;;;;35.43;16.50;;;;;;;8.91;91.43;100472.22;123639;1099;104300;-78
2024/02/24 07:00:23;;;;;;;35.23;16.93;;;;;;;9.03;91.85;100470.94;123460;1099;104286;-76
2024/02/24 07:02:54;;;;;;;;;;;;;;;9.13;91.67;100481.84;123648;1099;104380;-76
2024/02/24 07:05:25;;;;;;;33.53;16.47;;;;;;;9.19;91.95;100465.47;123461;1099;104364;-76
2024/02/24 07:07:57;;;;;;;41.27;16.03;;;;;;;9.27;91.24;100476.27;123360;1099;104368;-75
2024/02/24 07:10:28;;;;;;;35.53;16.93;;;;;;;9.35;91.16;100477.48;123435;1099;104361;-76
2024/02/24 07:12:59;;;;;;;35.87;16.53;;;;;;;9.42;91.69;100481.23;123452;1099;104777;-75
2024/02/24 07:15:30;;;;;;;36.47;16.17;;;;;;;9.48;90.97;100484.98;123500;1099;104389;-76
2024/02/24 07:18:02;;;;;;;34.17;16.83;;;;;;;9.48;91.13;100474.50;123523;1099;104367;-76
2024/02/24 07:20:33;;;;;;;38.00;16.87;;;;;;;9.51;91.74;100484.22;123499;1099;104293;-77
2024/02/24 07:23:04;;;;;;;35.10;16.80;;;;;;;9.59;91.58;100487.15;123522;1099;104265;-75
2024/02/24 07:25:37;;;;;;;38.43;16.77;;;;;;;9.60;91.99;100484.59;123550;1099;104284;-75
2024/02/24 07:28:09;;;;;;;36.13;17.47;;;;;;;9.59;91.90;100485.41;123525;1099;104294;-76
2024/02/24 07:30:40;;;;;;;37.67;17.37;;;;;;;9.62;91.41;100484.65;123598;1099;104341;-76
2024/02/24 07:33:12;;;;;;;38.10;17.23;;;;;;;9.65;91.61;100492.62;123468;1099;104306;-75
2024/02/24 07:35:44;;;;;;;35.00;16.80;;;;;;;9.71;91.85;100485.02;123498;1099;104268;-75
2024/02/24 07:38:15;;;;;;;34.97;17.70;;;;;;;9.75;91.69;100486.02;123527;1099;104265;-75
2024/02/24 07:40:46;;;;;;;35.50;16.83;;;;;;;9.73;91.49;100493.81;123490;1099;104329;-77
2024/02/24 07:43:17;;;;;;;41.30;18.17;;;;;;;9.77;91.39;100495.73;123410;1099;104488;-76
2024/02/24 07:45:49;;;;;;;37.67;16.87;;;;;;;9.83;91.92;100484.57;123476;1099;104341;-76
2024/02/24 07:48:21;;;;;;;38.20;17.77;;;;;;;9.86;91.84;100485.60;123517;1099;104303;-76
2024/02/24 07:50:52;;;;;;;39.60;18.10;;;;;;;9.88;91.98;100488.28;123578;1099;104261;-76
2024/02/24 07:53:23;;;;;;;39.07;17.50;;;;;;;9.92;92.42;100484.04;123502;1099;104320;-74
2024/02/24 07:55:54;;;;;;;38.73;19.87;;;;;;;9.97;92.15;100480.77;123414;1099;108111;-76
2024/02/24 07:58:26;;;;;;;40.23;19.27;;;;;;;10.04;92.02;100488.01;123568;1099;104290;-76
2024/02/24 08:00:57;;;;;;;38.43;18.47;;;;;;;10.10;91.54;100484.73;123672;1099;104265;-77
2024/02/24 08:03:28;;;;;;;41.80;18.93;;;;;;;10.14;91.78;100480.48;123480;1099;104284;-76
2024/02/24 08:05:59;;;;;;;32.40;17.03;;;;;;;10.18;92.30;100479.78;123513;1099;104360;-75
2024/02/24 08:08:33;;;;;;;36.47;17.80;;;;;;;10.21;92.31;100477.27;123491;1099;104304;-76
2024/02/24 08:11:05;;;;;;;40.20;19.17;;;;;;;10.30;91.93;100485.47;123501;1099;104274;-77
2024/02/24 08:13:41;;;;;;;39.77;18.53;;;;;;;10.43;91.93;100477.23;123470;1098;104348;-76
2024/02/24 08:16:13;;;;;;;37.47;18.90;;;;;;;10.56;91.77;100489.05;123492;1099;104322;-76
2024/02/24 08:18:44;;;;;;;39.50;19.57;;;;;;;10.67;92.07;100484.17;123469;1099;104280;-76
2024/02/24 08:21:15;;;;;;;38.80;18.83;;;;;;;10.77;91.76;100483.67;123403;1099;104838;-76
2024/02/24 08:23:46;;;;;;;36.43;18.40;;;;;;;10.84;91.66;100474.27;123516;1099;104219;-75
2024/02/24 08:26:17;;;;;;;36.73;18.33;;;;;;;10.89;91.72;100474.42;123519;1099;104264;-76
2024/02/24 08:28:50;;;;;;;35.53;19.03;;;;;;;10.95;91.97;100477.25;123603;1099;104245;-77
2024/02/24 08:31:21;;;;;;;38.23;18.92;;;;;;;10.99;91.76;100476.53;123488;1098;104458;-77
2024/02/24 08:33:53;;;;;;;36.10;18.07;;;;;;;11.08;91.58;100487.34;123460;1098;104291;-76
2024/02/24 08:36:24;;;;;;;40.37;18.80;;;;;;;11.16;91.84;100487.59;123408;1099;104245;-76
2024/02/24 08:38:56;;;;;;;35.30;19.10;;;;;;;11.24;91.93;100487.84;123488;1099;104301;-75
2024/02/24 08:41:31;;;;;;;37.20;19.07;;;;;;;11.44;91.99;100481.50;123484;1099;104270;-75
2024/02/24 08:44:02;;;;;;;33.50;17.10;;;;;;;11.71;91.92;100475.31;123554;1099;104265;-76
2024/02/24 08:46:34;;;;;;;37.30;17.57;;;;;;;11.93;91.39;100481.26;123482;1099;104296;-76
2024/02/24 08:49:05;;;;;;;38.57;19.10;;;;;;;12.04;90.61;100477.20;123534;1098;104312;-76
2024/02/24 08:51:36;;;;;;;34.07;16.57;;;;;;;12.23;91.09;100478.61;123473;1099;104245;-76
2024/02/24 08:54:07;;;;;;;32.67;16.57;;;;;;;12.57;91.46;100485.73;123635;1099;104329;-75
2024/02/24 08:56:38;;;;;;;31.03;15.63;;;;;;;12.83;91.12;100479.38;123450;1099;104245;-76
2024/02/24 08:59:09;;;;;;;32.87;15.37;;;;;;;13.11;90.75;100478.34;123416;1099;104367;-76
2024/02/24 09:01:40;;;;;;;33.47;14.83;;;;;;;13.22;90.30;100479.48;123506;1099;104379;-76
2024/02/24 09:04:12;;;;;;;28.10;13.55;;;;;;;13.25;89.71;100478.68;123196;1099;104258;-76
2024/02/24 09:06:43;;;;;;;26.50;12.93;;;;;;;13.17;89.42;100486.39;123521;1098;104326;-75
2024/02/24 09:09:16;;;;;;;27.73;13.67;;;;;;;13.10;89.53;100489.72;123519;1099;104367;-76
2024/02/24 09:11:48;;;;;;;26.27;12.70;;;;;;;13.15;89.32;100477.57;123570;1099;104245;-75
2024/02/24 09:14:19;;;;;;;30.37;13.17;;;;;;;13.23;89.59;100489.19;123447;1099;104318;-76
2024/02/24 09:16:54;;;;;;;28.37;12.87;;;;;;;13.36;89.25;100481.61;123497;1098;104297;-75
2024/02/24 09:19:26;;;;;;;25.43;11.73;;;;;;;13.38;88.38;100479.89;123554;1099;104252;-76
2024/02/24 09:21:58;;;;;;;26.13;11.87;;;;;;;13.37;88.68;100481.65;123436;1099;104380;-76
2024/02/24 09:24:30;;;;;;;28.87;12.67;;;;;;;13.45;89.37;100481.83;123454;1099;104341;-76
2024/02/24 09:27:01;;;;;;;23.55;11.45;;;;;;;13.54;88.28;100478.50;123517;1099;104264;-75
2024/02/24 09:29:35;;;;;;;27.65;11.45;;;;;;;13.65;87.68;100474.39;123652;1099;104318;-75
2024/02/24 09:32:09;;;;;;;24.97;10.60;;;;;;;13.75;87.98;100473.72;123537;1099;104217;-75
2024/02/24 09:34:40;;;;;;;27.37;12.43;;;;;;;13.85;88.20;100469.53;123528;1099;104276;-74
2024/02/24 09:37:11;;;;;;;26.00;10.93;;;;;;;13.98;87.79;100473.34;123453;1099;104505;-74
2024/02/24 09:39:43;;;;;;;29.63;11.13;;;;;;;14.10;86.64;100468.33;123273;1099;104402;-75
2024/02/24 09:42:14;;;;;;;23.10;10.60;;;;;;;14.23;87.96;100473.83;123509;1099;104364;-75
2024/02/24 09:44:46;;;;;;;23.23;9.93;;;;;;;14.35;88.09;100463.52;123661;1099;104220;-75
2024/02/24 09:47:18;;;;;;;24.33;9.80;;;;;;;14.39;86.11;100460.09;123483;1098;104297;-74
2024/02/24 09:49:51;;;;;;;24.13;10.00;;;;;;;14.47;85.98;100470.80;123698;1099;104411;-74
2024/02/24 09:52:22;;;;;;;24.07;10.33;;;;;;;14.56;86.85;100465.70;123505;1099;104239;-76
2024/02/24 09:54:53;;;;;;;23.57;11.27;;;;;;;14.66;86.67;100465.06;123671;1099;104338;-75
2024/02/24 09:57:29;;;;;;;23.03;10.07;;;;;;;14.79;86.80;100458.23;123328;1099;104638;-74
2024/02/24 10:00:01;;;;;;;23.53;9.93;;;;;;;14.94;86.16;100452.31;123693;1099;104357;-75
2024/02/24 10:02:45;;;;;;;23.70;9.60;;;;;;;15.08;85.14;100445.53;123726;1099;104226;-75
2024/02/24 10:05:18;;;;;;;20.70;9.40;;;;;;;15.20;85.16;100442.17;123529;1099;104229;-75
2024/02/24 10:07:49;;;;;;;22.85;10.35;;;;;;;15.32;85.08;100435.30;123545;1098;104347;-74
2024/02/24 10:10:23;;;;;;;20.80;8.13;;;;;;;15.40;84.04;100439.84;123608;1099;104800;-74
2024/02/24 10:13:02;;;;;;;20.83;9.03;;;;;;;15.43;84.01;100426.67;123678;1099;104287;-75
2024/02/24 10:15:35;;;;;;;22.27;9.53;;;;;;;15.51;84.30;100429.42;123892;1099;104338;-75
2024/02/24 10:18:07;;;;;;;24.43;9.88;;;;;;;15.58;83.97;100430.39;123745;1099;104245;-74
2024/02/24 10:20:38;;;;;;;18.43;8.73;;;;;;;15.58;82.05;100422.46;123689;1099;104265;-74
2024/02/24 10:23:12;;;;;;;23.37;8.70;;;;;;;15.62;82.42;100419.00;123601;1098;104865;-74
2024/02/24 10:25:43;;;;;;;16.77;8.43;;;;;;;15.71;82.33;100418.25;123237;1098;104319;-74
2024/02/24 10:28:15;;;;;;;22.23;8.77;;;;;;;15.81;83.15;100417.52;123701;1099;104326;-75
2024/02/24 10:30:48;;;;;;;21.20;8.37;;;;;;;15.87;81.48;100406.14;123730;1099;104428;-75
2024/02/24 10:33:19;;;;;;;19.10;8.00;;;;;;;15.93;80.77;100400.92;123731;1099;104254;-74
2024/02/24 10:35:51;;;;;;;18.80;7.90;;;;;;;16.01;81.32;100411.60;123709;1099;104293;-75
2024/02/24 10:38:24;;;;;;;20.70;8.00;;;;;;;16.09;80.52;100408.16;123467;1099;104277;-74
2024/02/24 10:40:57;;;;;;;17.42;7.60;;;;;;;16.09;79.80;100400.22;123431;1099;104171;-74
2024/02/24 10:43:30;;;;;;;16.32;7.67;;;;;;;16.15;79.57;100400.28;123528;1099;104258;-74
2024/02/24 10:46:03;;;;;;;17.20;7.27;;;;;;;16.20;77.63;100392.40;123570;1099;104623;-75
2024/02/24 10:48:36;;;;;;;19.20;7.40;;;;;;;16.27;78.42;100396.02;123556;1099;104320;-75
2024/02/24 10:51:07;;;;;;;20.23;7.90;;;;;;;16.35;78.11;100386.39;123666;1099;104265;-75
2024/02/24 10:53:40;;;;;;;18.50;7.90;;;;;;;16.42;77.80;100387.33;123589;1099;104339;-73
2024/02/24 10:56:12;;;;;;;18.15;8.15;;;;;;;16.43;77.01;100390.00;123724;1099;104342;-74
2024/02/24 10:58:43;;;;;;;16.43;7.03;;;;;;;16.48;76.63;100382.09;123618;1097;104344;-75
2024/02/24 11:01:18;;;;;;;15.63;6.37;;;;;;;16.53;76.91;100385.66;123663;1099;104296;-75
2024/02/24 11:03:51;;;;;;;16.27;6.93;;;;;;;16.55;76.02;100381.29;123775;1099;104268;-75
2024/02/24 11:06:45;;;;;;;16.17;6.97;;;;;;;16.67;76.43;100380.50;123568;1099;104264;-74
2024/02/24 11:09:21;;;;;;;16.90;7.28;;;;;;;16.77;76.07;100379.72;123451;1099;104325;-75
2024/02/24 11:11:52;;;;;;;17.70;7.50;;;;;;;16.86;75.61;100377.17;123479;1099;104283;-76
2024/02/24 11:14:24;;;;;;;19.13;7.20;;;;;;;17.00;76.21;100379.94;123511;1098;104235;-75
2024/02/24 11:16:55;;;;;;;18.50;7.07;;;;;;;17.12;75.27;100387.06;123491;1098;104349;-75
2024/02/24 11:19:42;;;;;;;16.13;7.00;;;;;;;17.16;74.85;100378.27;123472;1099;104402;-75